KAWM/AWM METAR and TAF weather

Enter ICAO airport designator
Station Type Date Time Source
KAWM METAR 2022/10/01 06:53 UTC NOAA

KAWM 010653Z AUTO 36004KT 10SM CLR 12/07 A3000 RMK AO2 SLP156 T01170067


Station Type Date Time Source
KAWM Decoded METAR 2022/10/01 06:53 UTC NOAA

WEST MEMPHIS MUNICIPAL AIRPORT, AR, United States (KAWM) 35-08N 090-14W
Oct 01, 2022 - 02:53 AM EDT / 2022.10.01 0653 UTC
Wind: from the N (360 degrees) at 5 MPH (4 KT):0
Visibility: 10 mile(s):0
Sky conditions: clear
Temperature: 53.1 F (11.7 C)
Dew Point: 44.1 F (6.7 C)
Relative Humidity: 71%
Pressure (altimeter): 30 in. Hg (1015 hPa)
ob: KAWM 010653Z AUTO 36004KT 10SM CLR 12/07 A3000 RMK AO2 SLP156 T01170067
cycle: 7

Station Type Date Time Source
KAWM TAF UTC NOAA

Error!

Example: see airport list